Time;durP1;ratioP1;P1;durP2;ratioP2;P2;SDS_P1;SDS_P2;PMS_P1;PMS_P2;Temp;Humidity;BMP_temperature;BMP_pressure;BME280_temperature;BME280_humidity;BME280_pressure;Samples;Min_cycle;Max_cycle;Signal;HPM_P1;HPM_P2
2022/11/13 00:02:05;;;;;;;22.42;15.55;;;;;;;6.34;100.00;102587.88;5081177;28;20115;-60
2022/11/13 00:04:30;;;;;;;22.42;16.00;;;;;;;6.30;100.00;102587.22;5081497;28;20036;-59
2022/11/13 00:06:56;;;;;;;22.70;15.55;;;;;;;6.32;100.00;102581.84;5082829;28;20040;-59
2022/11/13 00:09:21;;;;;;;22.27;15.48;;;;;;;6.28;99.90;102583.81;5083368;28;20093;-59
2022/11/13 00:11:46;;;;;;;21.75;15.35;;;;;;;6.28;99.92;102582.97;5084296;28;20040;-58
2022/11/13 00:14:11;;;;;;;23.40;15.32;;;;;;;6.29;100.00;102580.25;5083309;28;20119;-59
2022/11/13 00:16:37;;;;;;;21.38;15.07;;;;;;;6.22;99.79;102571.00;5079991;28;20107;-59
2022/11/13 00:19:02;;;;;;;22.08;15.23;;;;;;;6.24;99.36;102571.75;5080230;28;20036;-59
2022/11/13 00:21:28;;;;;;;21.77;15.10;;;;;;;6.22;99.31;102568.34;5083400;28;21281;-58
2022/11/13 00:23:55;;;;;;;20.17;15.07;;;;;;;6.18;99.21;102566.84;5080252;28;20391;-59
2022/11/13 00:26:26;;;;;;;19.80;14.93;;;;;;;6.18;99.48;102566.84;5071733;28;20047;-59
2022/11/13 00:28:56;;;;;;;22.70;14.82;;;;;;;6.13;99.01;102553.94;5083876;28;20035;-60
2022/11/13 00:31:22;;;;;;;20.80;14.70;;;;;;;6.13;98.84;102563.63;5083696;28;20040;-59
2022/11/13 00:33:48;;;;;;;22.02;14.57;;;;;;;6.13;98.62;102571.53;5084473;28;20032;-59
2022/11/13 00:36:17;;;;;;;22.30;14.32;;;;;;;6.11;98.92;102573.44;5085081;28;20036;-59
2022/11/13 00:38:43;;;;;;;20.45;14.73;;;;;;;6.05;99.19;102557.03;5086725;28;20038;-60
2022/11/13 00:41:08;;;;;;;20.25;14.32;;;;;;;6.05;99.51;102561.44;5086058;28;20058;-59
2022/11/13 00:43:33;;;;;;;19.13;14.18;;;;;;;5.96;99.67;102551.44;5087370;28;20478;-58
2022/11/13 00:45:58;;;;;;;18.40;13.23;;;;;;;5.88;98.80;102549.22;5083140;28;20029;-61
2022/11/13 00:48:24;;;;;;;20.05;13.80;;;;;;;5.85;98.84;102554.66;5086883;28;20032;-59
2022/11/13 00:50:50;;;;;;;21.13;14.57;;;;;;;5.79;99.04;102546.16;5086444;28;20448;-58
2022/11/13 00:53:15;;;;;;;21.45;14.63;;;;;;;5.79;98.52;102540.91;5086072;28;20044;-58
2022/11/13 00:55:44;;;;;;;19.38;14.05;;;;;;;5.76;99.55;102541.09;5083685;28;20051;-59
2022/11/13 00:58:11;;;;;;;21.30;14.13;;;;;;;5.72;98.98;102538.72;5085547;28;20028;-59
2022/11/13 01:00:37;;;;;;;22.67;14.43;;;;;;;5.71;98.81;102534.38;5087499;28;20103;-60
2022/11/13 01:03:03;;;;;;;20.45;14.52;;;;;;;5.68;99.08;102537.19;5082151;28;20024;-61
2022/11/13 01:05:28;;;;;;;20.65;14.27;;;;;;;5.64;98.43;102531.25;5084039;28;20071;-60
2022/11/13 01:07:53;;;;;;;20.50;14.20;;;;;;;5.62;98.54;102538.38;5085289;28;20505;-58
2022/11/13 01:10:20;;;;;;;22.27;14.57;;;;;;;5.65;99.08;102538.22;5086484;28;20042;-60
2022/11/13 01:12:45;;;;;;;19.20;13.88;;;;;;;5.60;99.36;102529.72;5087062;28;20764;-59
2022/11/13 01:15:11;;;;;;;20.70;14.73;;;;;;;5.62;99.18;102527.84;5087220;28;20039;-58
2022/11/13 01:17:36;;;;;;;22.88;15.10;;;;;;;5.65;99.81;102527.69;5085885;28;20119;-59
2022/11/13 01:20:03;;;;;;;24.67;15.18;;;;;;;5.66;99.48;102529.38;5086624;28;20169;-60
2022/11/13 01:22:29;;;;;;;21.23;14.93;;;;;;;5.67;99.28;102530.25;5085974;28;20012;-59
2022/11/13 01:24:54;;;;;;;22.80;14.52;;;;;;;5.65;99.84;102528.56;5086700;28;20035;-59
2022/11/13 01:27:20;;;;;;;22.20;14.80;;;;;;;5.61;99.60;102531.44;5086526;28;20146;-61
2022/11/13 01:29:45;;;;;;;21.30;14.40;;;;;;;5.64;99.00;102526.00;5086285;28;20101;-60
2022/11/13 01:32:10;;;;;;;21.17;14.77;;;;;;;5.61;98.90;102526.16;5086313;28;20067;-59
2022/11/13 01:34:35;;;;;;;19.35;13.98;;;;;;;5.58;99.23;102526.34;5084431;28;20032;-60
2022/11/13 01:37:01;;;;;;;22.95;14.55;;;;;;;5.54;99.73;102517.78;5080703;28;20040;-59
2022/11/13 01:39:26;;;;;;;20.63;14.48;;;;;;;5.57;99.03;102522.03;5084431;28;20036;-58
2022/11/13 01:41:51;;;;;;;19.90;14.10;;;;;;;5.57;99.35;102524.66;5083332;28;20130;-59
2022/11/13 01:44:18;;;;;;;21.83;13.45;;;;;;;5.59;98.82;102518.38;5083009;28;20036;-59
2022/11/13 01:46:47;;;;;;;21.33;14.52;;;;;;;5.51;99.09;102525.84;5079143;28;20083;-58
2022/11/13 01:49:36;;;;;;;20.27;13.55;;;;;;;5.58;99.01;102521.09;5083797;28;20084;-58
2022/11/13 01:52:09;;;;;;;22.00;14.07;;;;;;;5.51;98.72;102512.69;5086062;28;20036;-60
2022/11/13 01:54:44;;;;;;;20.73;13.93;;;;;;;5.54;98.83;102509.03;5085983;28;20041;-59
2022/11/13 01:57:10;;;;;;;20.10;13.40;;;;;;;5.49;98.66;102511.94;5085824;28;20024;-58
2022/11/13 01:59:42;;;;;;;19.05;13.57;;;;;;;5.46;98.66;102499.78;5082101;28;20066;-59
2022/11/13 02:02:08;;;;;;;21.73;13.60;;;;;;;5.48;99.15;102500.53;5085733;28;20486;-59
2022/11/13 02:04:34;;;;;;;19.63;13.45;;;;;;;5.49;98.86;102490.88;5077113;28;20082;-58
2022/11/13 02:07:04;;;;;;;19.33;13.85;;;;;;;5.44;99.23;102485.88;5081388;28;20035;-57
2022/11/13 02:09:34;;;;;;;20.70;13.45;;;;;;;5.46;98.76;102486.63;5084220;28;20092;-58
2022/11/13 02:12:00;;;;;;;20.05;13.52;;;;;;;5.43;98.76;102480.69;5084809;28;20032;-59
2022/11/13 02:14:28;;;;;;;18.48;12.80;;;;;;;5.40;98.50;102484.34;5085735;28;20035;-60
2022/11/13 02:16:58;;;;;;;20.05;13.13;;;;;;;5.39;99.17;102480.03;5085515;28;20070;-61
2022/11/13 02:19:32;;;;;;;20.67;13.15;;;;;;;5.35;99.07;102476.72;5085744;28;20143;-59
2022/11/13 02:22:23;;;;;;;19.42;13.02;;;;;;;5.36;98.60;102478.41;5086212;28;20039;-59
2022/11/13 02:24:49;;;;;;;19.55;12.57;;;;;;;5.34;99.22;102476.81;5081443;28;20048;-59
2022/11/13 02:27:32;;;;;;;18.40;12.70;;;;;;;5.36;99.50;102469.66;5083966;28;20043;-60
2022/11/13 02:29:58;;;;;;;18.40;13.00;;;;;;;5.38;99.33;102467.81;5084808;28;20047;-61
2022/11/13 02:32:23;;;;;;;19.85;12.95;;;;;;;5.37;99.55;102466.09;5085441;28;20036;-58
2022/11/13 02:34:48;;;;;;;20.95;12.73;;;;;;;5.36;100.00;102464.41;5084305;28;20028;-58
2022/11/13 02:37:14;;;;;;;18.95;13.40;;;;;;;5.36;99.71;102461.78;5078636;28;20060;-58
2022/11/13 02:39:39;;;;;;;18.52;12.48;;;;;;;5.37;100.00;102459.06;5079033;28;20513;-59
2022/11/13 02:42:04;;;;;;;18.67;12.82;;;;;;;5.35;100.00;102462.72;5083792;28;20032;-61
2022/11/13 02:44:30;;;;;;;18.02;12.43;;;;;;;5.35;100.00;102460.09;5076235;28;20087;-59
2022/11/13 02:46:55;;;;;;;20.15;12.77;;;;;;;5.38;99.77;102457.28;5080046;28;20039;-60
2022/11/13 02:49:21;;;;;;;18.25;12.77;;;;;;;5.40;100.00;102455.41;5079092;28;20563;-58
2022/11/13 02:51:47;;;;;;;17.70;12.32;;;;;;;5.42;100.00;102447.44;5083022;28;20080;-60
2022/11/13 02:54:12;;;;;;;17.83;12.32;;;;;;;5.42;99.96;102448.28;5078020;28;20038;-59
2022/11/13 02:56:38;;;;;;;19.98;13.13;;;;;;;5.44;100.00;102449.03;5081481;28;20032;-59
2022/11/13 02:59:03;;;;;;;19.05;12.77;;;;;;;5.44;100.00;102441.16;5077790;28;20033;-58
2022/11/13 03:01:28;;;;;;;18.20;12.82;;;;;;;5.41;99.77;102441.31;5078476;28;20031;-60
2022/11/13 03:03:54;;;;;;;17.58;12.60;;;;;;;5.42;100.00;102443.00;5071940;28;20051;-60
2022/11/13 03:06:19;;;;;;;18.90;13.30;;;;;;;5.39;99.81;102441.41;5077967;28;20855;-59
2022/11/13 03:08:45;;;;;;;17.92;12.63;;;;;;;5.38;100.00;102437.06;5085005;28;20028;-60
2022/11/13 03:11:10;;;;;;;19.17;12.52;;;;;;;5.37;99.92;102438.00;5082716;28;20032;-61
2022/11/13 03:13:36;;;;;;;19.75;12.43;;;;;;;5.37;100.00;102439.78;5084326;28;20035;-59
2022/11/13 03:16:13;;;;;;;17.90;11.98;;;;;;;5.33;99.44;102422.50;5078015;28;20097;-59
2022/11/13 03:18:39;;;;;;;18.83;12.27;;;;;;;5.35;99.87;102426.75;5077079;28;20047;-58
2022/11/13 03:21:06;;;;;;;18.80;12.15;;;;;;;5.34;99.52;102425.03;5078263;28;20028;-61
2022/11/13 03:23:31;;;;;;;18.75;12.40;;;;;;;5.31;99.15;102424.34;5083633;28;20467;-60
2022/11/13 03:26:05;;;;;;;18.42;12.25;;;;;;;5.31;99.03;102424.34;5079079;28;20047;-60
2022/11/13 03:28:30;;;;;;;19.08;12.38;;;;;;;5.29;99.98;102421.84;5077086;28;20123;-61
2022/11/13 03:30:55;;;;;;;19.40;12.20;;;;;;;5.31;99.22;102419.09;5079956;28;20681;-59
2022/11/13 03:33:20;;;;;;;16.58;11.63;;;;;;;5.32;99.66;102420.81;5082872;28;20935;-61
2022/11/13 03:35:46;;;;;;;19.13;11.93;;;;;;;5.31;99.17;102419.09;5083466;28;20506;-62
2022/11/13 03:38:12;;;;;;;17.13;11.75;;;;;;;5.31;98.95;102411.19;5083276;28;20035;-58
2022/11/13 03:40:37;;;;;;;18.75;11.98;;;;;;;5.30;98.77;102406.88;5084466;28;20042;-60
2022/11/13 03:43:02;;;;;;;15.80;11.02;;;;;;;5.30;98.74;102414.78;5082641;28;20039;-58
2022/11/13 03:45:27;;;;;;;17.95;11.18;;;;;;;5.32;98.50;102410.28;5084201;28;20044;-61
2022/11/13 03:47:53;;;;;;;15.80;10.77;;;;;;;5.32;99.25;102405.03;5082197;28;20113;-59
2022/11/13 03:50:18;;;;;;;16.35;10.63;;;;;;;5.33;98.80;102401.47;5082192;28;20051;-59
2022/11/13 03:52:43;;;;;;;18.10;10.80;;;;;;;5.36;98.59;102398.63;5073297;28;20040;-61
2022/11/13 03:55:08;;;;;;;15.07;11.10;;;;;;;5.40;99.10;102397.53;5077154;28;20047;-60
2022/11/13 03:57:34;;;;;;;16.63;11.55;;;;;;;5.41;99.18;102396.59;5077307;28;20406;-58
2022/11/13 03:59:59;;;;;;;14.80;10.70;;;;;;;5.45;98.43;102394.63;5080981;28;20032;-60
2022/11/13 04:02:24;;;;;;;16.17;10.95;;;;;;;5.48;98.92;102392.66;5076057;28;20047;-58
2022/11/13 04:04:50;;;;;;;16.67;11.20;;;;;;;5.51;98.45;102383.75;5083423;28;20032;-59
2022/11/13 04:07:15;;;;;;;16.60;11.00;;;;;;;5.54;98.27;102394.09;5077479;28;20040;-58
2022/11/13 04:09:40;;;;;;;16.63;10.88;;;;;;;5.55;98.06;102380.00;5070857;28;20273;-58
2022/11/13 04:12:06;;;;;;;16.48;10.85;;;;;;;5.56;98.05;102370.31;5082732;28;20111;-58
2022/11/13 04:14:31;;;;;;;16.63;11.35;;;;;;;5.60;97.85;102377.09;5081303;28;20036;-59
2022/11/13 04:16:56;;;;;;;17.55;10.82;;;;;;;5.60;98.30;102383.22;5078290;28;20028;-61
2022/11/13 04:19:21;;;;;;;16.77;10.57;;;;;;;5.62;97.76;102386.59;5081002;28;20391;-61
2022/11/13 04:21:47;;;;;;;16.15;10.32;;;;;;;5.64;97.73;102383.88;5082393;28;20478;-58
2022/11/13 04:24:12;;;;;;;15.07;10.05;;;;;;;5.64;98.07;102378.63;5082234;28;20145;-59
2022/11/13 04:26:37;;;;;;;16.50;10.57;;;;;;;5.65;97.51;102372.41;5080609;28;20039;-61
2022/11/13 04:29:02;;;;;;;15.52;10.20;;;;;;;5.67;97.45;102367.88;5083679;28;20051;-59
2022/11/13 04:31:28;;;;;;;17.80;10.60;;;;;;;5.68;97.70;102361.72;5080134;28;20040;-58
2022/11/13 04:33:53;;;;;;;15.57;9.98;;;;;;;5.70;97.09;102362.47;5084239;28;20493;-59
2022/11/13 04:36:18;;;;;;;14.50;10.30;;;;;;;5.71;96.67;102361.50;5084074;28;20104;-59
2022/11/13 04:38:43;;;;;;;16.45;10.75;;;;;;;5.72;96.60;102355.31;5083915;28;20047;-58
2022/11/13 04:43:56;;;;;;;15.73;10.45;;;;;;;5.68;96.87;102356.44;5076595;28;20552;-58
2022/11/13 04:46:21;;;;;;;16.48;10.27;;;;;;;5.66;96.94;102355.66;5083522;28;20073;-59
2022/11/13 04:48:46;;;;;;;15.48;10.57;;;;;;;5.66;96.41;102350.41;5082550;28;20040;-60
2022/11/13 04:51:12;;;;;;;12.75;9.93;;;;;;;5.64;96.29;102352.28;5084057;28;20084;-61
2022/11/13 04:53:37;;;;;;;14.70;10.30;;;;;;;5.64;96.59;102347.03;5069381;28;20036;-58
2022/11/13 04:56:03;;;;;;;15.65;10.18;;;;;;;5.63;96.80;102361.13;5082726;28;20044;-59
2022/11/13 04:58:28;;;;;;;15.07;10.23;;;;;;;5.62;96.83;102354.16;5083165;28;20036;-60
2022/11/13 05:00:53;;;;;;;15.70;10.20;;;;;;;5.59;96.71;102351.72;5075742;28;20547;-58
2022/11/13 05:03:19;;;;;;;16.30;10.27;;;;;;;5.58;96.96;102350.03;5082438;28;20036;-59
2022/11/13 05:05:44;;;;;;;15.65;11.02;;;;;;;5.55;97.09;102363.34;5081149;28;20059;-60
2022/11/13 05:08:09;;;;;;;14.48;10.32;;;;;;;5.52;96.41;102365.25;5079706;28;20032;-59
2022/11/13 05:10:35;;;;;;;15.73;10.60;;;;;;;5.48;96.49;102353.19;5080486;28;20604;-59
2022/11/13 05:13:01;;;;;;;14.52;10.27;;;;;;;5.47;96.33;102367.28;5082301;28;20097;-61
2022/11/13 05:15:26;;;;;;;16.38;11.10;;;;;;;5.46;96.74;102360.34;5084979;28;20036;-60
2022/11/13 05:17:53;;;;;;;16.63;10.98;;;;;;;5.44;96.56;102351.69;5076289;28;20114;-60
2022/11/13 05:20:18;;;;;;;15.73;10.82;;;;;;;5.41;96.47;102357.13;5085252;28;20042;-58
2022/11/13 05:22:44;;;;;;;17.30;11.20;;;;;;;5.38;96.89;102352.06;5086295;28;20114;-59
2022/11/13 05:25:09;;;;;;;15.18;10.77;;;;;;;5.36;96.59;102351.28;5074567;28;20024;-58
2022/11/13 05:27:34;;;;;;;14.98;10.48;;;;;;;5.32;97.26;102350.63;5086288;28;20867;-61
2022/11/13 05:29:59;;;;;;;16.25;10.90;;;;;;;5.31;96.59;102350.69;5085605;28;20028;-59
2022/11/13 05:32:25;;;;;;;16.35;11.07;;;;;;;5.30;96.45;102343.75;5081620;28;20569;-59
2022/11/13 05:34:50;;;;;;;16.75;11.23;;;;;;;5.23;97.17;102336.22;5086061;28;20040;-59
2022/11/13 05:37:15;;;;;;;16.60;10.85;;;;;;;5.20;96.39;102333.78;5085992;28;20032;-60
2022/11/13 05:39:41;;;;;;;17.67;11.05;;;;;;;5.16;97.12;102329.63;5084342;28;20028;-58
2022/11/13 05:42:06;;;;;;;18.38;10.90;;;;;;;5.15;96.66;102330.56;5086230;28;20574;-61
2022/11/13 05:44:31;;;;;;;15.63;10.65;;;;;;;5.12;96.85;102336.00;5087021;28;20055;-58
2022/11/13 05:46:57;;;;;;;15.70;10.80;;;;;;;5.12;96.61;102343.88;5083480;28;20036;-60
2022/11/13 05:49:22;;;;;;;16.52;10.77;;;;;;;5.09;96.99;102341.44;5086511;28;20407;-59
2022/11/13 05:51:47;;;;;;;15.35;10.90;;;;;;;5.05;96.46;102339.91;5080815;28;20036;-61
2022/11/13 05:54:13;;;;;;;15.05;10.50;;;;;;;5.06;96.67;102336.34;5086047;28;20036;-59
2022/11/13 05:56:39;;;;;;;16.75;11.43;;;;;;;5.02;96.66;102340.09;5083811;28;20036;-60
2022/11/13 05:59:05;;;;;;;16.08;10.15;;;;;;;4.97;96.69;102341.19;5081196;28;20055;-58
2022/11/13 06:01:38;;;;;;;14.85;10.27;;;;;;;4.96;96.75;102336.03;5078639;28;20144;-58
2022/11/13 06:04:05;;;;;;;16.17;10.82;;;;;;;4.84;96.35;102340.22;5079068;28;20029;-58
2022/11/13 06:06:31;;;;;;;18.17;11.07;;;;;;;4.79;96.61;102335.19;5075849;28;20040;-59
2022/11/13 06:08:57;;;;;;;16.73;11.38;;;;;;;4.72;97.75;102339.09;5081153;28;20411;-58
2022/11/13 06:11:25;;;;;;;17.27;10.93;;;;;;;4.66;96.56;102334.19;5082876;28;20333;-60
2022/11/13 06:13:51;;;;;;;16.58;10.93;;;;;;;4.67;97.33;102330.63;5084729;28;20042;-60
2022/11/13 06:16:20;;;;;;;16.75;10.93;;;;;;;4.61;96.88;102321.31;5085618;28;20093;-59
2022/11/13 06:18:47;;;;;;;15.70;10.30;;;;;;;4.58;97.18;102316.22;5085907;28;20486;-58
2022/11/13 06:21:19;;;;;;;17.58;10.75;;;;;;;4.55;97.27;102316.41;5083156;28;20027;-61
2022/11/13 06:23:45;;;;;;;16.67;11.00;;;;;;;4.50;96.79;102308.78;5078879;28;20081;-60
2022/11/13 06:26:17;;;;;;;16.70;11.18;;;;;;;4.48;96.85;102315.06;5082689;28;20034;-61
2022/11/13 06:28:42;;;;;;;17.13;11.07;;;;;;;4.50;97.40;102318.44;5079866;28;20024;-59
2022/11/13 06:31:29;;;;;;;16.05;10.98;;;;;;;4.51;97.79;102312.25;5078767;28;20058;-61
2022/11/13 06:33:57;;;;;;;16.83;11.32;;;;;;;4.40;96.94;102313.69;5080808;28;20047;-59
2022/11/13 06:36:31;;;;;;;17.30;10.77;;;;;;;4.42;96.82;102314.47;5083129;28;20407;-61
2022/11/13 06:38:57;;;;;;;17.70;11.27;;;;;;;4.36;97.14;102300.81;5084421;28;20466;-62
2022/11/13 06:41:28;;;;;;;16.65;10.50;;;;;;;4.34;96.91;102313.19;5077307;28;20032;-62
2022/11/13 06:43:54;;;;;;;17.75;10.88;;;;;;;4.27;96.97;102300.38;5072807;28;20027;-60
2022/11/13 06:46:22;;;;;;;17.30;11.10;;;;;;;4.24;96.82;102299.72;5080247;28;20499;-60
2022/11/13 06:48:48;;;;;;;18.33;10.50;;;;;;;4.23;96.65;102300.63;5076429;28;20024;-61
2022/11/13 06:51:16;;;;;;;15.07;11.05;;;;;;;4.21;96.67;102291.97;5078902;28;20031;-60
2022/11/13 06:53:42;;;;;;;17.15;10.82;;;;;;;4.21;97.26;102299.88;5079854;28;20040;-59
2022/11/13 06:56:08;;;;;;;16.73;11.35;;;;;;;4.16;97.12;102298.31;5081428;28;20032;-59
2022/11/13 06:58:34;;;;;;;17.67;10.93;;;;;;;4.14;97.43;102302.81;5073474;28;20040;-61
2022/11/13 07:01:07;;;;;;;17.75;11.60;;;;;;;4.12;97.28;102290.69;5081649;28;20044;-60
2022/11/13 07:03:33;;;;;;;16.38;10.82;;;;;;;4.14;98.12;102301.97;5080901;28;20081;-59
2022/11/13 07:06:03;;;;;;;18.23;11.55;;;;;;;4.12;97.68;102299.44;5080766;28;20040;-59
2022/11/13 07:08:29;;;;;;;17.58;11.50;;;;;;;4.15;97.81;102299.25;5076750;28;20564;-61
2022/11/13 07:10:55;;;;;;;17.33;11.13;;;;;;;4.19;97.82;102304.38;5079830;28;20044;-61
2022/11/13 07:13:22;;;;;;;19.45;11.57;;;;;;;4.19;98.76;102304.38;5064741;28;20070;-61
2022/11/13 07:15:48;;;;;;;17.70;11.65;;;;;;;4.20;98.50;102295.53;5075342;28;20526;-61
2022/11/13 07:18:13;;;;;;;17.35;11.85;;;;;;;4.21;98.60;102295.47;5078806;28;20044;-59
2022/11/13 07:20:38;;;;;;;17.25;11.13;;;;;;;4.21;98.16;102295.47;5074916;28;20044;-60
2022/11/13 07:23:03;;;;;;;20.10;12.13;;;;;;;4.23;97.93;102296.22;5079107;28;20032;-61
2022/11/13 07:25:29;;;;;;;19.58;11.82;;;;;;;4.26;97.87;102290.81;5077370;28;20081;-59
2022/11/13 07:27:55;;;;;;;20.42;12.10;;;;;;;4.31;98.40;102287.94;5077303;28;20073;-60
2022/11/13 07:30:20;;;;;;;17.60;11.65;;;;;;;4.33;97.71;102293.94;5075540;28;20111;-60
2022/11/13 07:32:45;;;;;;;17.65;11.95;;;;;;;4.33;97.93;102286.06;5079211;28;20502;-63
2022/11/13 07:35:11;;;;;;;18.58;11.35;;;;;;;4.41;97.42;102283.00;5073884;28;20039;-63
2022/11/13 07:37:37;;;;;;;17.58;11.60;;;;;;;4.42;97.78;102290.81;5073396;28;20032;-60
2022/11/13 07:40:03;;;;;;;17.67;11.48;;;;;;;4.48;97.83;102291.41;5076189;28;20050;-60
2022/11/13 07:42:29;;;;;;;16.83;11.73;;;;;;;4.54;97.80;102293.69;5075174;28;20035;-59
2022/11/13 07:44:54;;;;;;;17.20;11.43;;;;;;;4.57;97.62;102283.00;5068792;28;20101;-61
2022/11/13 07:47:19;;;;;;;19.35;11.55;;;;;;;4.61;97.02;102275.78;5079906;28;20139;-59
2022/11/13 07:49:45;;;;;;;17.27;11.80;;;;;;;4.64;97.05;102276.47;5075130;28;20544;-60
2022/11/13 07:52:10;;;;;;;17.20;11.63;;;;;;;4.71;98.00;102285.72;5078708;28;20380;-59
2022/11/13 07:54:35;;;;;;;19.23;11.93;;;;;;;4.80;96.99;102288.75;5072149;28;20475;-59
2022/11/13 07:57:01;;;;;;;20.50;12.80;;;;;;;4.82;97.59;102281.59;5072286;28;20127;-60
2022/11/13 07:59:26;;;;;;;18.52;12.48;;;;;;;4.89;97.26;102282.13;5072859;28;20036;-58
2022/11/13 08:01:52;;;;;;;20.13;12.55;;;;;;;4.96;97.25;102284.31;5072385;28;20074;-58
2022/11/13 08:04:17;;;;;;;20.13;12.20;;;;;;;5.02;97.55;102282.25;5070844;28;20451;-58
2022/11/13 08:06:43;;;;;;;20.58;13.13;;;;;;;5.11;97.56;102276.44;5074887;28;20047;-59
2022/11/13 08:09:08;;;;;;;18.52;12.70;;;;;;;5.16;96.84;102278.78;5071659;28;20101;-59
2022/11/13 08:11:34;;;;;;;18.77;12.20;;;;;;;5.21;96.59;102274.97;5072569;28;20040;-59
2022/11/13 08:13:59;;;;;;;18.50;13.05;;;;;;;5.27;96.68;102275.56;5070937;28;20035;-59
2022/11/13 08:16:25;;;;;;;20.52;13.30;;;;;;;5.31;96.73;102279.69;5073425;28;20031;-61
2022/11/13 08:18:50;;;;;;;18.60;12.98;;;;;;;5.34;97.34;102274.25;5072754;28;20423;-58
2022/11/13 08:21:16;;;;;;;22.08;13.75;;;;;;;5.41;96.91;102270.31;5071373;28;20281;-58
2022/11/13 08:23:41;;;;;;;17.85;13.30;;;;;;;5.45;97.30;102278.84;5070067;28;20385;-59
2022/11/13 08:26:07;;;;;;;21.48;13.35;;;;;;;5.51;97.01;102273.22;5073261;28;20032;-59
2022/11/13 08:28:34;;;;;;;18.63;13.05;;;;;;;5.56;96.80;102270.31;5066356;28;20074;-58
2022/11/13 08:31:00;;;;;;;21.23;13.88;;;;;;;5.62;96.91;102267.31;5073889;28;20024;-61
2022/11/13 08:33:25;;;;;;;18.63;13.27;;;;;;;5.67;96.28;102267.88;5069091;28;20032;-60
2022/11/13 08:35:53;;;;;;;20.35;13.73;;;;;;;5.74;95.88;102263.94;5069981;28;20159;-59
2022/11/13 08:38:19;;;;;;;22.20;13.68;;;;;;;5.79;96.55;102269.75;5069897;28;20119;-59
2022/11/13 08:40:44;;;;;;;19.67;13.65;;;;;;;5.86;96.40;102254.44;5075611;28;20095;-61
2022/11/13 08:43:09;;;;;;;20.25;13.75;;;;;;;5.89;96.16;102258.66;5076152;28;20058;-59
2022/11/13 08:45:34;;;;;;;20.20;13.65;;;;;;;5.95;95.91;102255.66;5073237;28;20312;-61
2022/11/13 08:48:01;;;;;;;23.30;14.00;;;;;;;6.01;95.57;102255.25;5071038;28;20317;-61
2022/11/13 08:50:28;;;;;;;18.98;13.88;;;;;;;6.07;95.11;102253.22;5073953;28;20078;-60
2022/11/13 08:52:54;;;;;;;17.75;13.55;;;;;;;6.12;94.64;102254.59;5073944;28;20044;-60
2022/11/13 08:55:20;;;;;;;20.75;13.93;;;;;;;6.20;94.43;102254.13;5078184;28;20060;-59
2022/11/13 08:57:45;;;;;;;19.83;13.70;;;;;;;6.27;94.52;102255.41;5076645;28;20192;-59
2022/11/13 09:00:11;;;;;;;16.98;12.95;;;;;;;6.26;94.49;102248.47;5083525;28;20039;-60
2022/11/13 09:02:36;;;;;;;18.35;12.85;;;;;;;6.40;93.86;102254.63;5080718;28;20035;-59
2022/11/13 09:05:02;;;;;;;19.25;13.32;;;;;;;6.48;93.54;102257.63;5074221;28;20027;-59
2022/11/13 09:07:27;;;;;;;17.05;12.05;;;;;;;6.56;93.29;102260.59;5078549;28;20085;-61
2022/11/13 09:09:53;;;;;;;17.20;12.40;;;;;;;6.62;93.56;102253.25;5080676;28;20020;-60
2022/11/13 09:12:18;;;;;;;19.20;13.73;;;;;;;6.68;93.05;102252.84;5079541;28;20537;-59
2022/11/13 09:14:43;;;;;;;18.00;12.48;;;;;;;6.74;92.73;102249.81;5081207;28;20032;-59
2022/11/13 09:17:08;;;;;;;18.83;12.65;;;;;;;6.81;92.91;102248.44;5082194;28;20035;-59
2022/11/13 09:19:34;;;;;;;17.10;11.77;;;;;;;6.89;92.40;102233.91;5081461;28;20489;-58
2022/11/13 09:21:59;;;;;;;17.10;11.75;;;;;;;6.97;92.45;102242.16;5071900;28;20449;-59
2022/11/13 09:24:24;;;;;;;16.55;11.65;;;;;;;7.02;90.65;102240.06;5082853;28;20070;-59
2022/11/13 09:26:49;;;;;;;16.45;11.70;;;;;;;7.09;90.54;102240.47;5076051;28;20028;-59
2022/11/13 09:29:15;;;;;;;17.58;11.35;;;;;;;7.15;90.78;102236.59;5075535;28;20036;-61
2022/11/13 09:31:40;;;;;;;15.50;10.68;;;;;;;7.21;91.01;102237.00;5080036;28;20364;-59
2022/11/13 09:34:07;;;;;;;15.30;11.05;;;;;;;7.30;91.10;102239.97;5081786;28;20032;-60
2022/11/13 09:36:32;;;;;;;15.68;10.90;;;;;;;7.35;90.30;102241.34;5074637;28;20085;-58
2022/11/13 09:38:59;;;;;;;15.10;10.27;;;;;;;7.43;88.97;102238.19;5075487;28;20028;-59
2022/11/13 09:41:28;;;;;;;14.32;10.70;;;;;;;7.48;89.09;102240.50;5076016;28;20024;-57
2022/11/13 09:43:58;;;;;;;16.33;10.68;;;;;;;7.56;89.46;102242.59;5081307;28;20066;-60
2022/11/13 09:46:38;;;;;;;13.43;9.77;;;;;;;7.62;88.17;102232.47;5078271;28;20106;-61
2022/11/13 09:49:20;;;;;;;14.52;9.63;;;;;;;7.69;87.58;102237.31;5080619;28;20664;-61
2022/11/13 09:51:55;;;;;;;13.93;9.93;;;;;;;7.78;87.30;102232.22;5075102;28;20043;-58
2022/11/13 09:54:21;;;;;;;13.27;9.52;;;;;;;7.89;86.31;102234.09;5076576;28;20046;-58
2022/11/13 09:56:58;;;;;;;15.63;10.73;;;;;;;7.93;85.76;102240.84;5082876;28;20707;-59
2022/11/13 09:59:45;;;;;;;16.33;9.60;;;;;;;8.02;86.58;102239.34;5083312;28;20532;-60
2022/11/13 10:02:20;;;;;;;12.25;9.00;;;;;;;8.08;85.08;102232.78;5081390;28;20033;-59
2022/11/13 10:05:11;;;;;;;19.42;9.15;;;;;;;8.18;84.22;102233.81;5080933;28;20024;-59
2022/11/13 10:07:50;;;;;;;13.43;8.80;;;;;;;8.26;83.92;102237.69;5078761;28;20118;-61
2022/11/13 10:10:43;;;;;;;11.57;8.68;;;;;;;8.32;83.25;102234.59;5076362;28;20024;-60
2022/11/13 10:13:13;;;;;;;12.27;8.23;;;;;;;8.36;82.69;102230.78;5077034;28;20624;-59
2022/11/13 10:15:40;;;;;;;12.50;8.65;;;;;;;8.41;83.13;102228.66;5080593;28;20024;-59
2022/11/13 10:18:14;;;;;;;11.23;8.48;;;;;;;8.45;83.02;102227.44;5068468;28;20033;-60
2022/11/13 10:21:12;;;;;;;12.23;8.50;;;;;;;8.45;83.70;102219.50;5081542;28;20093;-62
2022/11/13 10:23:38;;;;;;;14.63;8.70;;;;;;;8.59;82.73;102220.34;5076889;28;20043;-61
2022/11/13 10:26:20;;;;;;;11.90;8.23;;;;;;;8.63;82.20;102218.31;5082189;28;20028;-58
2022/11/13 10:28:51;;;;;;;11.85;8.07;;;;;;;8.69;79.93;102221.31;5080153;28;20612;-59
2022/11/13 10:31:17;;;;;;;11.27;8.20;;;;;;;8.74;79.76;102218.34;5081369;28;20488;-59
2022/11/13 10:33:42;;;;;;;12.63;7.80;;;;;;;8.85;79.79;102204.31;5077503;28;20081;-59
2022/11/13 10:36:25;;;;;;;13.00;8.32;;;;;;;8.86;80.22;102206.00;5073565;28;20028;-59
2022/11/13 10:39:05;;;;;;;15.02;8.48;;;;;;;8.92;80.62;102205.53;5073564;28;20038;-60
2022/11/13 10:41:30;;;;;;;12.43;8.38;;;;;;;8.98;78.36;102204.22;5078450;28;20491;-59
2022/11/13 10:44:00;;;;;;;9.75;7.55;;;;;;;9.02;79.39;102195.94;5076203;28;20025;-60
2022/11/13 10:46:28;;;;;;;14.00;7.97;;;;;;;9.11;79.21;102198.81;5071079;28;20052;-60
2022/11/13 10:48:55;;;;;;;10.93;8.20;;;;;;;9.22;78.01;102190.91;5071727;28;20029;-59
2022/11/13 10:51:27;;;;;;;13.07;7.90;;;;;;;9.23;78.49;102181.16;5075630;28;20035;-59
2022/11/13 10:53:54;;;;;;;11.53;8.40;;;;;;;9.26;78.27;102178.25;5075585;28;20040;-59
2022/11/13 10:56:54;;;;;;;16.05;8.82;;;;;;;9.34;78.27;102172.38;5075310;28;20028;-59
2022/11/13 10:59:20;;;;;;;13.45;8.55;;;;;;;9.42;76.92;102164.66;5074252;28;20380;-58
2022/11/13 11:01:52;;;;;;;13.15;8.35;;;;;;;9.50;76.41;102167.56;5072738;28;20347;-59
2022/11/13 11:04:28;;;;;;;14.13;8.27;;;;;;;9.64;76.03;102173.56;5071471;28;20028;-59
2022/11/13 11:06:54;;;;;;;12.15;8.00;;;;;;;9.65;75.42;102159.34;5073910;28;20894;-59
2022/11/13 11:09:25;;;;;;;12.30;8.38;;;;;;;9.68;76.88;102154.66;5072279;28;21795;-59
2022/11/13 11:12:20;;;;;;;11.55;8.50;;;;;;;9.74;76.16;102153.34;5075072;28;20366;-60
2022/11/13 11:15:04;;;;;;;13.88;9.15;;;;;;;9.77;77.10;102152.25;5074059;28;20032;-58
2022/11/13 11:17:52;;;;;;;12.05;9.00;;;;;;;9.83;78.07;102155.22;5078020;28;20032;-59
2022/11/13 11:20:37;;;;;;;12.95;8.73;;;;;;;9.91;78.79;102157.25;5078217;28;20024;-59
2022/11/13 11:23:21;;;;;;;13.27;8.82;;;;;;;9.96;78.02;102162.16;5070451;28;20040;-59